sensor_id;sensor_type;location;lat;lon;timestamp;P1;durP1;ratioP1;P2;durP2;ratioP2
40675;SDS011;26359;48.750;9.314;2023-06-14T00:01:16;11.00;;;10.10;;
40675;SDS011;26359;48.750;9.314;2023-06-14T00:03:42;13.38;;;12.27;;
40675;SDS011;26359;48.750;9.314;2023-06-14T00:06:07;18.30;;;16.98;;
40675;SDS011;26359;48.750;9.314;2023-06-14T00:08:33;21.00;;;19.60;;
40675;SDS011;26359;48.750;9.314;2023-06-14T00:10:58;12.98;;;11.93;;
40675;SDS011;26359;48.750;9.314;2023-06-14T00:13:24;12.00;;;10.90;;
40675;SDS011;26359;48.750;9.314;2023-06-14T00:15:50;11.77;;;10.73;;
40675;SDS011;26359;48.750;9.314;2023-06-14T00:18:19;15.82;;;14.25;;
40675;SDS011;26359;48.750;9.314;2023-06-14T00:20:48;12.10;;;10.93;;
40675;SDS011;26359;48.750;9.314;2023-06-14T00:23:14;12.00;;;11.00;;
40675;SDS011;26359;48.750;9.314;2023-06-14T00:25:40;16.33;;;15.13;;
40675;SDS011;26359;48.750;9.314;2023-06-14T00:28:05;11.18;;;10.38;;
40675;SDS011;26359;48.750;9.314;2023-06-14T00:30:31;11.50;;;10.60;;
40675;SDS011;26359;48.750;9.314;2023-06-14T00:32:57;10.63;;;9.68;;
40675;SDS011;26359;48.750;9.314;2023-06-14T00:35:23;9.73;;;7.80;;
40675;SDS011;26359;48.750;9.314;2023-06-14T00:37:48;8.85;;;8.05;;
40675;SDS011;26359;48.750;9.314;2023-06-14T00:40:14;9.45;;;8.55;;
40675;SDS011;26359;48.750;9.314;2023-06-14T00:42:40;8.52;;;7.82;;
40675;SDS011;26359;48.750;9.314;2023-06-14T00:45:05;8.55;;;7.80;;
40675;SDS011;26359;48.750;9.314;2023-06-14T00:47:31;8.93;;;8.10;;
40675;SDS011;26359;48.750;9.314;2023-06-14T00:49:57;9.27;;;8.48;;
40675;SDS011;26359;48.750;9.314;2023-06-14T00:52:23;9.45;;;8.55;;
40675;SDS011;26359;48.750;9.314;2023-06-14T00:54:49;10.85;;;7.78;;
40675;SDS011;26359;48.750;9.314;2023-06-14T00:57:15;8.23;;;7.53;;
40675;SDS011;26359;48.750;9.314;2023-06-14T00:59:45;9.23;;;8.43;;
40675;SDS011;26359;48.750;9.314;2023-06-14T01:02:14;10.10;;;9.13;;
40675;SDS011;26359;48.750;9.314;2023-06-14T01:04:40;10.25;;;9.35;;
40675;SDS011;26359;48.750;9.314;2023-06-14T01:15:15;13.45;;;12.00;;
40675;SDS011;26359;48.750;9.314;2023-06-14T01:17:41;10.85;;;9.90;;
40675;SDS011;26359;48.750;9.314;2023-06-14T01:20:09;10.77;;;9.68;;
40675;SDS011;26359;48.750;9.314;2023-06-14T01:22:45;12.43;;;11.50;;
40675;SDS011;26359;48.750;9.314;2023-06-14T01:25:15;11.90;;;10.90;;
40675;SDS011;26359;48.750;9.314;2023-06-14T01:27:41;13.18;;;12.00;;
40675;SDS011;26359;48.750;9.314;2023-06-14T01:30:07;13.48;;;12.18;;
40675;SDS011;26359;48.750;9.314;2023-06-14T01:32:34;10.88;;;10.05;;
40675;SDS011;26359;48.750;9.314;2023-06-14T01:35:01;9.90;;;9.00;;
40675;SDS011;26359;48.750;9.314;2023-06-14T01:37:28;11.25;;;10.38;;
40675;SDS011;26359;48.750;9.314;2023-06-14T01:39:55;12.55;;;11.25;;
40675;SDS011;26359;48.750;9.314;2023-06-14T01:42:21;10.32;;;9.43;;
40675;SDS011;26359;48.750;9.314;2023-06-14T01:44:48;9.73;;;8.82;;
40675;SDS011;26359;48.750;9.314;2023-06-14T01:47:14;10.75;;;9.85;;
40675;SDS011;26359;48.750;9.314;2023-06-14T01:49:40;10.88;;;9.88;;
40675;SDS011;26359;48.750;9.314;2023-06-14T01:52:06;10.25;;;9.27;;
40675;SDS011;26359;48.750;9.314;2023-06-14T01:54:34;10.07;;;9.18;;
40675;SDS011;26359;48.750;9.314;2023-06-14T01:57:02;12.52;;;11.57;;
40675;SDS011;26359;48.750;9.314;2023-06-14T01:59:28;12.55;;;11.55;;
40675;SDS011;26359;48.750;9.314;2023-06-14T02:01:56;13.07;;;10.45;;
40675;SDS011;26359;48.750;9.314;2023-06-14T02:04:21;10.10;;;9.02;;
40675;SDS011;26359;48.750;9.314;2023-06-14T02:06:47;10.43;;;9.32;;
40675;SDS011;26359;48.750;9.314;2023-06-14T02:09:12;11.18;;;9.43;;
40675;SDS011;26359;48.750;9.314;2023-06-14T02:11:38;10.02;;;9.15;;
40675;SDS011;26359;48.750;9.314;2023-06-14T02:14:03;9.20;;;8.32;;
40675;SDS011;26359;48.750;9.314;2023-06-14T02:16:29;12.15;;;11.07;;
40675;SDS011;26359;48.750;9.314;2023-06-14T02:18:55;13.82;;;12.60;;
40675;SDS011;26359;48.750;9.314;2023-06-14T02:21:21;14.90;;;12.88;;
40675;SDS011;26359;48.750;9.314;2023-06-14T02:23:47;12.75;;;11.68;;
40675;SDS011;26359;48.750;9.314;2023-06-14T02:26:12;16.88;;;15.57;;
40675;SDS011;26359;48.750;9.314;2023-06-14T02:28:38;21.70;;;20.13;;
40675;SDS011;26359;48.750;9.314;2023-06-14T02:31:03;25.23;;;23.25;;
40675;SDS011;26359;48.750;9.314;2023-06-14T02:33:29;22.50;;;20.73;;
40675;SDS011;26359;48.750;9.314;2023-06-14T02:35:54;16.77;;;15.57;;
40675;SDS011;26359;48.750;9.314;2023-06-14T02:38:21;14.43;;;13.32;;
40675;SDS011;26359;48.750;9.314;2023-06-14T02:40:46;15.30;;;14.18;;
40675;SDS011;26359;48.750;9.314;2023-06-14T02:43:12;12.07;;;11.02;;
40675;SDS011;26359;48.750;9.314;2023-06-14T02:45:37;15.55;;;14.02;;
40675;SDS011;26359;48.750;9.314;2023-06-14T02:48:03;15.15;;;13.95;;
40675;SDS011;26359;48.750;9.314;2023-06-14T02:50:29;25.80;;;23.92;;
40675;SDS011;26359;48.750;9.314;2023-06-14T02:52:55;22.80;;;20.95;;
40675;SDS011;26359;48.750;9.314;2023-06-14T02:55:22;19.95;;;18.45;;
40675;SDS011;26359;48.750;9.314;2023-06-14T02:57:47;17.15;;;15.85;;
40675;SDS011;26359;48.750;9.314;2023-06-14T03:00:13;17.02;;;15.63;;
40675;SDS011;26359;48.750;9.314;2023-06-14T03:02:39;15.35;;;14.07;;
40675;SDS011;26359;48.750;9.314;2023-06-14T03:05:04;16.75;;;15.55;;
40675;SDS011;26359;48.750;9.314;2023-06-14T03:07:32;14.10;;;13.00;;
40675;SDS011;26359;48.750;9.314;2023-06-14T03:09:57;14.80;;;13.32;;
40675;SDS011;26359;48.750;9.314;2023-06-14T03:12:23;12.57;;;11.57;;
40675;SDS011;26359;48.750;9.314;2023-06-14T03:14:48;12.93;;;11.50;;
40675;SDS011;26359;48.750;9.314;2023-06-14T03:17:15;13.02;;;11.77;;
40675;SDS011;26359;48.750;9.314;2023-06-14T03:19:42;13.85;;;12.75;;
40675;SDS011;26359;48.750;9.314;2023-06-14T03:22:08;14.20;;;12.90;;
40675;SDS011;26359;48.750;9.314;2023-06-14T03:24:33;14.48;;;13.27;;
40675;SDS011;26359;48.750;9.314;2023-06-14T03:27:01;25.00;;;23.30;;
40675;SDS011;26359;48.750;9.314;2023-06-14T03:29:27;23.25;;;21.52;;
40675;SDS011;26359;48.750;9.314;2023-06-14T03:31:57;26.00;;;24.10;;
40675;SDS011;26359;48.750;9.314;2023-06-14T03:34:24;23.10;;;21.63;;
40675;SDS011;26359;48.750;9.314;2023-06-14T03:36:49;21.90;;;20.30;;
40675;SDS011;26359;48.750;9.314;2023-06-14T03:39:15;22.67;;;21.17;;
40675;SDS011;26359;48.750;9.314;2023-06-14T03:41:40;22.52;;;20.75;;
40675;SDS011;26359;48.750;9.314;2023-06-14T03:44:06;22.17;;;20.48;;
40675;SDS011;26359;48.750;9.314;2023-06-14T03:46:31;27.88;;;26.08;;
40675;SDS011;26359;48.750;9.314;2023-06-14T03:48:57;31.30;;;29.20;;
40675;SDS011;26359;48.750;9.314;2023-06-14T03:51:22;26.75;;;24.88;;
40675;SDS011;26359;48.750;9.314;2023-06-14T03:53:50;29.63;;;27.48;;
40675;SDS011;26359;48.750;9.314;2023-06-14T03:56:15;24.95;;;23.23;;
40675;SDS011;26359;48.750;9.314;2023-06-14T03:58:41;24.17;;;22.60;;
40675;SDS011;26359;48.750;9.314;2023-06-14T04:01:06;26.05;;;24.17;;
40675;SDS011;26359;48.750;9.314;2023-06-14T04:03:32;28.80;;;26.77;;
40675;SDS011;26359;48.750;9.314;2023-06-14T04:05:58;23.85;;;22.00;;
40675;SDS011;26359;48.750;9.314;2023-06-14T04:08:24;23.45;;;21.83;;
40675;SDS011;26359;48.750;9.314;2023-06-14T04:10:50;23.90;;;22.27;;
40675;SDS011;26359;48.750;9.314;2023-06-14T04:13:15;34.60;;;32.22;;
40675;SDS011;26359;48.750;9.314;2023-06-14T04:15:42;29.60;;;27.38;;
40675;SDS011;26359;48.750;9.314;2023-06-14T04:18:08;26.73;;;24.73;;
40675;SDS011;26359;48.750;9.314;2023-06-14T04:20:34;23.35;;;21.65;;
40675;SDS011;26359;48.750;9.314;2023-06-14T04:23:10;27.80;;;25.90;;
40675;SDS011;26359;48.750;9.314;2023-06-14T04:25:37;26.38;;;24.40;;
40675;SDS011;26359;48.750;9.314;2023-06-14T04:28:03;23.73;;;22.13;;
40675;SDS011;26359;48.750;9.314;2023-06-14T04:30:29;22.73;;;21.02;;
40675;SDS011;26359;48.750;9.314;2023-06-14T04:32:56;15.57;;;14.23;;
40675;SDS011;26359;48.750;9.314;2023-06-14T04:35:22;15.50;;;14.00;;
40675;SDS011;26359;48.750;9.314;2023-06-14T04:37:50;19.05;;;17.75;;
40675;SDS011;26359;48.750;9.314;2023-06-14T04:40:17;17.73;;;16.30;;
40675;SDS011;26359;48.750;9.314;2023-06-14T04:42:42;24.40;;;22.77;;
40675;SDS011;26359;48.750;9.314;2023-06-14T04:45:09;22.92;;;21.05;;
40675;SDS011;26359;48.750;9.314;2023-06-14T04:47:35;18.80;;;17.30;;
40675;SDS011;26359;48.750;9.314;2023-06-14T04:50:02;16.30;;;15.00;;
40675;SDS011;26359;48.750;9.314;2023-06-14T04:52:28;18.98;;;17.50;;
40675;SDS011;26359;48.750;9.314;2023-06-14T04:54:54;15.52;;;14.23;;
40675;SDS011;26359;48.750;9.314;2023-06-14T04:57:20;14.75;;;13.60;;
40675;SDS011;26359;48.750;9.314;2023-06-14T04:59:47;11.77;;;10.73;;
40675;SDS011;26359;48.750;9.314;2023-06-14T05:02:13;15.32;;;13.13;;
40675;SDS011;26359;48.750;9.314;2023-06-14T05:04:39;34.95;;;32.38;;
40675;SDS011;26359;48.750;9.314;2023-06-14T05:07:08;29.85;;;27.63;;
40675;SDS011;26359;48.750;9.314;2023-06-14T05:09:34;26.95;;;25.13;;
40675;SDS011;26359;48.750;9.314;2023-06-14T05:12:00;20.67;;;19.05;;
40675;SDS011;26359;48.750;9.314;2023-06-14T05:14:26;16.02;;;14.70;;
40675;SDS011;26359;48.750;9.314;2023-06-14T05:16:51;14.65;;;12.65;;
40675;SDS011;26359;48.750;9.314;2023-06-14T05:19:18;14.02;;;12.75;;
40675;SDS011;26359;48.750;9.314;2023-06-14T05:21:45;15.18;;;13.68;;
40675;SDS011;26359;48.750;9.314;2023-06-14T05:24:12;13.65;;;12.25;;
40675;SDS011;26359;48.750;9.314;2023-06-14T05:26:38;15.23;;;13.75;;
40675;SDS011;26359;48.750;9.314;2023-06-14T05:29:04;13.38;;;12.02;;
40675;SDS011;26359;48.750;9.314;2023-06-14T05:31:29;15.57;;;13.85;;
40675;SDS011;26359;48.750;9.314;2023-06-14T05:33:55;27.90;;;25.83;;
40675;SDS011;26359;48.750;9.314;2023-06-14T05:36:21;38.22;;;35.72;;
40675;SDS011;26359;48.750;9.314;2023-06-14T05:38:47;32.65;;;30.20;;
40675;SDS011;26359;48.750;9.314;2023-06-14T05:41:13;46.20;;;43.22;;
40675;SDS011;26359;48.750;9.314;2023-06-14T05:43:38;45.40;;;42.28;;
40675;SDS011;26359;48.750;9.314;2023-06-14T05:46:04;41.72;;;39.03;;
40675;SDS011;26359;48.750;9.314;2023-06-14T05:48:30;26.45;;;24.35;;
40675;SDS011;26359;48.750;9.314;2023-06-14T05:50:56;18.15;;;16.60;;
40675;SDS011;26359;48.750;9.314;2023-06-14T05:53:21;19.92;;;18.17;;
40675;SDS011;26359;48.750;9.314;2023-06-14T05:55:47;23.40;;;15.50;;
40675;SDS011;26359;48.750;9.314;2023-06-14T05:58:12;16.48;;;14.80;;
40675;SDS011;26359;48.750;9.314;2023-06-14T06:00:39;15.38;;;13.90;;
40675;SDS011;26359;48.750;9.314;2023-06-14T06:03:04;14.98;;;13.48;;
40675;SDS011;26359;48.750;9.314;2023-06-14T06:05:33;15.43;;;12.48;;
40675;SDS011;26359;48.750;9.314;2023-06-14T06:07:58;15.98;;;14.00;;
40675;SDS011;26359;48.750;9.314;2023-06-14T06:10:24;24.20;;;21.92;;
40675;SDS011;26359;48.750;9.314;2023-06-14T06:12:49;15.13;;;13.40;;
40675;SDS011;26359;48.750;9.314;2023-06-14T06:15:17;26.05;;;23.77;;
40675;SDS011;26359;48.750;9.314;2023-06-14T06:17:43;13.82;;;12.00;;
40675;SDS011;26359;48.750;9.314;2023-06-14T06:20:09;12.30;;;10.10;;
40675;SDS011;26359;48.750;9.314;2023-06-14T06:22:36;14.65;;;12.02;;
40675;SDS011;26359;48.750;9.314;2023-06-14T06:25:02;13.07;;;11.05;;
40675;SDS011;26359;48.750;9.314;2023-06-14T06:27:28;13.65;;;12.32;;
40675;SDS011;26359;48.750;9.314;2023-06-14T06:29:53;16.52;;;15.20;;
40675;SDS011;26359;48.750;9.314;2023-06-14T06:32:19;12.75;;;11.52;;
40675;SDS011;26359;48.750;9.314;2023-06-14T06:34:44;19.85;;;11.93;;
40675;SDS011;26359;48.750;9.314;2023-06-14T06:37:10;11.90;;;9.25;;
40675;SDS011;26359;48.750;9.314;2023-06-14T06:39:36;9.02;;;8.05;;
40675;SDS011;26359;48.750;9.314;2023-06-14T06:42:01;11.60;;;9.20;;
40675;SDS011;26359;48.750;9.314;2023-06-14T06:44:27;11.75;;;10.68;;
40675;SDS011;26359;48.750;9.314;2023-06-14T06:46:52;16.80;;;15.43;;
40675;SDS011;26359;48.750;9.314;2023-06-14T06:49:18;10.75;;;9.75;;
40675;SDS011;26359;48.750;9.314;2023-06-14T06:51:52;14.98;;;13.93;;
40675;SDS011;26359;48.750;9.314;2023-06-14T06:54:33;12.02;;;11.02;;
40675;SDS011;26359;48.750;9.314;2023-06-14T06:56:59;20.38;;;18.85;;
40675;SDS011;26359;48.750;9.314;2023-06-14T06:59:26;11.80;;;10.75;;
40675;SDS011;26359;48.750;9.314;2023-06-14T07:01:51;9.75;;;8.85;;
40675;SDS011;26359;48.750;9.314;2023-06-14T07:04:17;11.23;;;10.23;;
40675;SDS011;26359;48.750;9.314;2023-06-14T07:06:43;11.30;;;10.30;;
40675;SDS011;26359;48.750;9.314;2023-06-14T07:09:09;13.60;;;12.25;;
40675;SDS011;26359;48.750;9.314;2023-06-14T07:11:38;15.23;;;14.23;;
40675;SDS011;26359;48.750;9.314;2023-06-14T07:14:04;34.03;;;31.15;;
40675;SDS011;26359;48.750;9.314;2023-06-14T07:16:30;18.17;;;16.90;;
40675;SDS011;26359;48.750;9.314;2023-06-14T07:18:56;14.77;;;13.38;;
40675;SDS011;26359;48.750;9.314;2023-06-14T07:21:21;11.73;;;9.35;;
40675;SDS011;26359;48.750;9.314;2023-06-14T07:23:47;9.40;;;8.32;;
40675;SDS011;26359;48.750;9.314;2023-06-14T07:26:12;10.93;;;9.88;;
40675;SDS011;26359;48.750;9.314;2023-06-14T07:28:38;11.77;;;10.68;;
40675;SDS011;26359;48.750;9.314;2023-06-14T07:31:03;11.70;;;10.73;;
40675;SDS011;26359;48.750;9.314;2023-06-14T07:33:29;13.48;;;12.27;;
40675;SDS011;26359;48.750;9.314;2023-06-14T07:35:55;14.15;;;13.10;;
40675;SDS011;26359;48.750;9.314;2023-06-14T07:38:20;11.38;;;10.02;;
40675;SDS011;26359;48.750;9.314;2023-06-14T07:40:46;10.10;;;9.40;;
40675;SDS011;26359;48.750;9.314;2023-06-14T07:43:11;10.82;;;9.93;;
40675;SDS011;26359;48.750;9.314;2023-06-14T07:45:37;12.18;;;10.80;;
40675;SDS011;26359;48.750;9.314;2023-06-14T07:48:03;11.82;;;10.77;;
40675;SDS011;26359;48.750;9.314;2023-06-14T07:50:29;11.10;;;10.18;;
40675;SDS011;26359;48.750;9.314;2023-06-14T07:52:55;10.80;;;9.90;;
40675;SDS011;26359;48.750;9.314;2023-06-14T07:55:20;9.45;;;8.65;;
40675;SDS011;26359;48.750;9.314;2023-06-14T07:57:46;9.68;;;8.68;;
40675;SDS011;26359;48.750;9.314;2023-06-14T08:00:12;11.70;;;10.80;;
40675;SDS011;26359;48.750;9.314;2023-06-14T08:02:40;15.38;;;14.18;;
40675;SDS011;26359;48.750;9.314;2023-06-14T08:05:07;15.95;;;14.57;;
40675;SDS011;26359;48.750;9.314;2023-06-14T08:07:34;18.85;;;17.10;;
40675;SDS011;26359;48.750;9.314;2023-06-14T08:10:00;40.67;;;38.08;;
40675;SDS011;26359;48.750;9.314;2023-06-14T08:12:25;21.38;;;19.88;;
40675;SDS011;26359;48.750;9.314;2023-06-14T08:14:51;32.08;;;29.92;;
40675;SDS011;26359;48.750;9.314;2023-06-14T08:17:16;38.33;;;36.05;;
40675;SDS011;26359;48.750;9.314;2023-06-14T08:19:42;30.30;;;28.23;;
40675;SDS011;26359;48.750;9.314;2023-06-14T08:22:07;30.35;;;28.48;;
40675;SDS011;26359;48.750;9.314;2023-06-14T08:24:37;11.63;;;10.70;;
40675;SDS011;26359;48.750;9.314;2023-06-14T08:27:02;13.55;;;8.57;;
40675;SDS011;26359;48.750;9.314;2023-06-14T08:29:28;10.00;;;8.07;;
40675;SDS011;26359;48.750;9.314;2023-06-14T08:31:55;10.35;;;9.50;;
40675;SDS011;26359;48.750;9.314;2023-06-14T08:34:21;9.93;;;8.90;;
40675;SDS011;26359;48.750;9.314;2023-06-14T08:36:48;10.65;;;9.75;;
40675;SDS011;26359;48.750;9.314;2023-06-14T08:39:17;9.75;;;8.90;;
40675;SDS011;26359;48.750;9.314;2023-06-14T08:41:45;9.23;;;8.43;;
40675;SDS011;26359;48.750;9.314;2023-06-14T08:44:13;13.77;;;12.50;;
40675;SDS011;26359;48.750;9.314;2023-06-14T08:46:40;10.18;;;9.15;;
40675;SDS011;26359;48.750;9.314;2023-06-14T08:49:07;10.55;;;9.48;;
40675;SDS011;26359;48.750;9.314;2023-06-14T08:51:36;10.27;;;9.48;;
40675;SDS011;26359;48.750;9.314;2023-06-14T08:54:02;16.38;;;14.98;;
40675;SDS011;26359;48.750;9.314;2023-06-14T08:56:29;13.88;;;12.25;;
40675;SDS011;26359;48.750;9.314;2023-06-14T08:58:56;18.90;;;17.58;;
40675;SDS011;26359;48.750;9.314;2023-06-14T09:01:25;40.53;;;38.20;;
40675;SDS011;26359;48.750;9.314;2023-06-14T09:03:51;68.85;;;64.88;;
40675;SDS011;26359;48.750;9.314;2023-06-14T09:06:19;22.65;;;20.95;;
40675;SDS011;26359;48.750;9.314;2023-06-14T09:08:48;9.02;;;8.25;;
40675;SDS011;26359;48.750;9.314;2023-06-14T09:11:15;8.93;;;7.97;;
40675;SDS011;26359;48.750;9.314;2023-06-14T09:13:43;9.48;;;8.57;;
40675;SDS011;26359;48.750;9.314;2023-06-14T09:16:10;21.48;;;19.70;;
40675;SDS011;26359;48.750;9.314;2023-06-14T09:21:06;12.73;;;10.95;;
40675;SDS011;26359;48.750;9.314;2023-06-14T09:23:36;20.10;;;18.38;;
40675;SDS011;26359;48.750;9.314;2023-06-14T09:26:09;12.20;;;11.02;;
40675;SDS011;26359;48.750;9.314;2023-06-14T09:28:42;11.90;;;10.45;;
40675;SDS011;26359;48.750;9.314;2023-06-14T09:31:11;18.38;;;17.10;;
40675;SDS011;26359;48.750;9.314;2023-06-14T09:33:37;10.40;;;9.38;;
40675;SDS011;26359;48.750;9.314;2023-06-14T09:36:04;10.77;;;9.93;;
40675;SDS011;26359;48.750;9.314;2023-06-14T09:38:34;15.63;;;14.43;;
40675;SDS011;26359;48.750;9.314;2023-06-14T09:41:00;12.77;;;11.65;;
40675;SDS011;26359;48.750;9.314;2023-06-14T09:43:29;11.73;;;10.93;;
40675;SDS011;26359;48.750;9.314;2023-06-14T09:45:55;10.32;;;9.55;;
40675;SDS011;26359;48.750;9.314;2023-06-14T09:48:21;10.05;;;9.32;;
40675;SDS011;26359;48.750;9.314;2023-06-14T09:50:46;10.77;;;9.68;;
40675;SDS011;26359;48.750;9.314;2023-06-14T09:53:14;9.75;;;8.95;;
40675;SDS011;26359;48.750;9.314;2023-06-14T09:55:41;9.35;;;8.35;;
40675;SDS011;26359;48.750;9.314;2023-06-14T09:58:08;9.90;;;9.00;;
40675;SDS011;26359;48.750;9.314;2023-06-14T10:00:36;9.60;;;8.75;;
40675;SDS011;26359;48.750;9.314;2023-06-14T10:03:15;10.20;;;9.40;;
40675;SDS011;26359;48.750;9.314;2023-06-14T10:05:45;9.23;;;8.45;;
40675;SDS011;26359;48.750;9.314;2023-06-14T10:08:17;8.82;;;8.13;;
40675;SDS011;26359;48.750;9.314;2023-06-14T10:10:44;8.30;;;7.45;;
40675;SDS011;26359;48.750;9.314;2023-06-14T10:13:11;9.07;;;8.38;;
40675;SDS011;26359;48.750;9.314;2023-06-14T10:15:43;9.45;;;8.55;;
40675;SDS011;26359;48.750;9.314;2023-06-14T10:18:17;9.88;;;8.98;;
40675;SDS011;26359;48.750;9.314;2023-06-14T10:20:52;8.65;;;7.75;;
40675;SDS011;26359;48.750;9.314;2023-06-14T10:23:29;10.38;;;9.07;;
40675;SDS011;26359;48.750;9.314;2023-06-14T10:25:58;8.80;;;7.68;;
40675;SDS011;26359;48.750;9.314;2023-06-14T10:28:25;9.05;;;7.85;;
40675;SDS011;26359;48.750;9.314;2023-06-14T10:31:04;8.57;;;7.20;;
40675;SDS011;26359;48.750;9.314;2023-06-14T10:33:48;19.90;;;12.05;;
40675;SDS011;26359;48.750;9.314;2023-06-14T10:36:29;7.97;;;7.25;;
40675;SDS011;26359;48.750;9.314;2023-06-14T10:39:06;7.90;;;7.22;;
40675;SDS011;26359;48.750;9.314;2023-06-14T10:41:37;8.20;;;7.18;;
40675;SDS011;26359;48.750;9.314;2023-06-14T10:44:10;7.68;;;6.85;;
40675;SDS011;26359;48.750;9.314;2023-06-14T10:46:36;8.07;;;7.38;;
40675;SDS011;26359;48.750;9.314;2023-06-14T10:49:01;9.00;;;8.15;;
40675;SDS011;26359;48.750;9.314;2023-06-14T10:51:29;16.63;;;15.48;;
40675;SDS011;26359;48.750;9.314;2023-06-14T10:53:55;11.88;;;10.75;;
40675;SDS011;26359;48.750;9.314;2023-06-14T10:56:27;18.15;;;16.17;;
40675;SDS011;26359;48.750;9.314;2023-06-14T10:58:57;18.05;;;16.73;;
40675;SDS011;26359;48.750;9.314;2023-06-14T11:01:28;17.95;;;16.33;;
40675;SDS011;26359;48.750;9.314;2023-06-14T11:04:08;18.20;;;16.83;;
40675;SDS011;26359;48.750;9.314;2023-06-14T11:06:44;12.07;;;10.95;;
40675;SDS011;26359;48.750;9.314;2023-06-14T11:09:20;12.13;;;11.02;;
40675;SDS011;26359;48.750;9.314;2023-06-14T11:12:09;10.60;;;9.52;;
40675;SDS011;26359;48.750;9.314;2023-06-14T11:14:36;9.60;;;8.65;;
40675;SDS011;26359;48.750;9.314;2023-06-14T11:17:03;11.40;;;10.45;;
40675;SDS011;26359;48.750;9.314;2023-06-14T11:19:29;10.25;;;7.93;;
40675;SDS011;26359;48.750;9.314;2023-06-14T11:21:55;8.70;;;8.00;;
40675;SDS011;26359;48.750;9.314;2023-06-14T11:24:20;19.30;;;18.13;;
40675;SDS011;26359;48.750;9.314;2023-06-14T11:26:46;19.08;;;17.67;;
40675;SDS011;26359;48.750;9.314;2023-06-14T11:29:12;18.60;;;17.02;;
40675;SDS011;26359;48.750;9.314;2023-06-14T11:31:42;9.60;;;8.82;;
40675;SDS011;26359;48.750;9.314;2023-06-14T11:34:10;12.18;;;11.25;;
40675;SDS011;26359;48.750;9.314;2023-06-14T11:36:37;10.65;;;9.80;;
40675;SDS011;26359;48.750;9.314;2023-06-14T11:39:04;9.90;;;8.98;;
40675;SDS011;26359;48.750;9.314;2023-06-14T11:41:41;21.45;;;19.95;;
40675;SDS011;26359;48.750;9.314;2023-06-14T11:44:08;8.07;;;7.18;;
40675;SDS011;26359;48.750;9.314;2023-06-14T11:46:34;8.70;;;7.97;;
40675;SDS011;26359;48.750;9.314;2023-06-14T11:49:00;8.07;;;7.43;;
40675;SDS011;26359;48.750;9.314;2023-06-14T11:51:29;11.00;;;10.05;;
40675;SDS011;26359;48.750;9.314;2023-06-14T11:53:55;9.80;;;8.73;;
40675;SDS011;26359;48.750;9.314;2023-06-14T11:56:21;9.82;;;8.95;;
40675;SDS011;26359;48.750;9.314;2023-06-14T11:58:47;10.65;;;9.77;;
40675;SDS011;26359;48.750;9.314;2023-06-14T12:01:17;10.70;;;9.70;;
40675;SDS011;26359;48.750;9.314;2023-06-14T12:03:49;11.82;;;10.63;;
40675;SDS011;26359;48.750;9.314;2023-06-14T12:06:15;12.32;;;10.23;;
40675;SDS011;26359;48.750;9.314;2023-06-14T12:08:42;12.48;;;11.52;;
40675;SDS011;26359;48.750;9.314;2023-06-14T12:11:10;13.32;;;12.43;;
40675;SDS011;26359;48.750;9.314;2023-06-14T12:13:38;13.00;;;12.00;;
40675;SDS011;26359;48.750;9.314;2023-06-14T12:16:06;13.98;;;12.98;;
40675;SDS011;26359;48.750;9.314;2023-06-14T12:18:36;11.68;;;10.55;;
40675;SDS011;26359;48.750;9.314;2023-06-14T12:21:06;12.32;;;10.05;;
40675;SDS011;26359;48.750;9.314;2023-06-14T12:23:46;13.18;;;12.00;;
40675;SDS011;26359;48.750;9.314;2023-06-14T12:26:14;11.60;;;10.70;;
40675;SDS011;26359;48.750;9.314;2023-06-14T12:28:41;11.80;;;11.00;;
40675;SDS011;26359;48.750;9.314;2023-06-14T12:31:08;18.27;;;14.32;;
40675;SDS011;26359;48.750;9.314;2023-06-14T12:33:33;7.90;;;7.07;;
40675;SDS011;26359;48.750;9.314;2023-06-14T12:35:59;8.30;;;7.50;;
40675;SDS011;26359;48.750;9.314;2023-06-14T12:38:25;10.02;;;8.48;;
40675;SDS011;26359;48.750;9.314;2023-06-14T12:40:50;9.48;;;7.38;;
40675;SDS011;26359;48.750;9.314;2023-06-14T12:43:16;10.20;;;9.23;;
40675;SDS011;26359;48.750;9.314;2023-06-14T12:45:41;11.93;;;10.93;;
40675;SDS011;26359;48.750;9.314;2023-06-14T12:48:07;9.98;;;9.23;;
40675;SDS011;26359;48.750;9.314;2023-06-14T12:50:33;17.98;;;16.67;;
40675;SDS011;26359;48.750;9.314;2023-06-14T12:52:59;21.90;;;20.50;;
40675;SDS011;26359;48.750;9.314;2023-06-14T12:55:25;11.52;;;10.65;;
40675;SDS011;26359;48.750;9.314;2023-06-14T12:57:50;8.30;;;7.68;;
40675;SDS011;26359;48.750;9.314;2023-06-14T13:00:16;8.73;;;8.05;;
40675;SDS011;26359;48.750;9.314;2023-06-14T13:02:43;7.32;;;6.63;;
40675;SDS011;26359;48.750;9.314;2023-06-14T13:05:08;11.48;;;10.55;;
40675;SDS011;26359;48.750;9.314;2023-06-14T13:07:34;8.75;;;7.88;;
40675;SDS011;26359;48.750;9.314;2023-06-14T13:10:00;14.95;;;13.60;;
40675;SDS011;26359;48.750;9.314;2023-06-14T13:12:25;21.50;;;20.00;;
40675;SDS011;26359;48.750;9.314;2023-06-14T13:14:51;19.70;;;18.38;;
40675;SDS011;26359;48.750;9.314;2023-06-14T13:17:16;12.90;;;11.98;;
40675;SDS011;26359;48.750;9.314;2023-06-14T13:19:42;14.98;;;13.88;;
40675;SDS011;26359;48.750;9.314;2023-06-14T13:22:08;15.10;;;13.75;;
40675;SDS011;26359;48.750;9.314;2023-06-14T13:24:33;11.98;;;10.80;;
40675;SDS011;26359;48.750;9.314;2023-06-14T13:26:59;20.83;;;19.35;;
40675;SDS011;26359;48.750;9.314;2023-06-14T13:29:25;17.40;;;16.25;;
40675;SDS011;26359;48.750;9.314;2023-06-14T13:31:51;25.83;;;24.02;;
40675;SDS011;26359;48.750;9.314;2023-06-14T13:34:17;12.85;;;11.95;;
40675;SDS011;26359;48.750;9.314;2023-06-14T13:36:43;14.82;;;13.48;;
40675;SDS011;26359;48.750;9.314;2023-06-14T13:39:08;10.48;;;9.60;;
40675;SDS011;26359;48.750;9.314;2023-06-14T13:41:35;8.43;;;7.50;;
40675;SDS011;26359;48.750;9.314;2023-06-14T13:44:01;7.65;;;7.05;;
40675;SDS011;26359;48.750;9.314;2023-06-14T13:46:29;6.82;;;6.25;;
40675;SDS011;26359;48.750;9.314;2023-06-14T13:48:55;7.85;;;7.15;;
40675;SDS011;26359;48.750;9.314;2023-06-14T13:51:20;7.85;;;6.10;;
40675;SDS011;26359;48.750;9.314;2023-06-14T13:53:47;6.70;;;6.00;;
40675;SDS011;26359;48.750;9.314;2023-06-14T13:56:13;7.82;;;7.13;;
40675;SDS011;26359;48.750;9.314;2023-06-14T13:58:39;8.18;;;7.45;;
40675;SDS011;26359;48.750;9.314;2023-06-14T14:01:05;7.97;;;6.60;;
40675;SDS011;26359;48.750;9.314;2023-06-14T14:03:30;10.75;;;9.88;;
40675;SDS011;26359;48.750;9.314;2023-06-14T14:05:56;7.85;;;7.20;;
40675;SDS011;26359;48.750;9.314;2023-06-14T14:08:22;10.95;;;10.25;;
40675;SDS011;26359;48.750;9.314;2023-06-14T14:10:47;24.25;;;22.52;;
40675;SDS011;26359;48.750;9.314;2023-06-14T14:13:13;39.13;;;36.92;;
40675;SDS011;26359;48.750;9.314;2023-06-14T14:15:39;42.72;;;40.33;;
40675;SDS011;26359;48.750;9.314;2023-06-14T14:18:04;42.83;;;40.38;;
40675;SDS011;26359;48.750;9.314;2023-06-14T14:20:30;34.53;;;32.33;;
40675;SDS011;26359;48.750;9.314;2023-06-14T14:22:56;35.38;;;33.10;;
40675;SDS011;26359;48.750;9.314;2023-06-14T14:25:22;46.15;;;43.08;;
40675;SDS011;26359;48.750;9.314;2023-06-14T14:27:47;43.10;;;40.15;;
40675;SDS011;26359;48.750;9.314;2023-06-14T14:30:13;37.33;;;34.95;;
40675;SDS011;26359;48.750;9.314;2023-06-14T14:32:42;44.80;;;42.13;;
40675;SDS011;26359;48.750;9.314;2023-06-14T14:35:09;11.90;;;10.75;;
40675;SDS011;26359;48.750;9.314;2023-06-14T14:37:34;12.20;;;11.15;;